createdAt,value
2022-10-31T00:02:08.581Z,5.77
2022-10-31T00:04:39.235Z,5.78
2022-10-31T00:07:09.605Z,5.80
2022-10-31T00:09:39.897Z,5.83
2022-10-31T00:12:10.275Z,5.81
2022-10-31T00:14:42.139Z,5.75
2022-10-31T00:17:12.027Z,5.75
2022-10-31T00:19:42.397Z,5.71
2022-10-31T00:22:12.588Z,5.79
2022-10-31T00:24:43.418Z,5.72
2022-10-31T00:27:13.584Z,5.67
2022-10-31T00:29:45.328Z,5.67
2022-10-31T00:32:15.790Z,5.67
2022-10-31T00:34:46.178Z,5.68
2022-10-31T00:37:16.666Z,5.75
2022-10-31T00:39:50.287Z,5.72
2022-10-31T00:42:20.425Z,5.69
2022-10-31T00:44:52.187Z,5.62
2022-10-31T00:47:25.015Z,5.56
2022-10-31T00:49:55.306Z,5.55
2022-10-31T00:52:25.546Z,5.52
2022-10-31T00:54:55.846Z,5.43
2022-10-31T00:57:26.017Z,5.42
2022-10-31T00:59:58.016Z,5.39
2022-10-31T01:02:28.228Z,5.37
2022-10-31T01:04:58.717Z,5.46
2022-10-31T01:07:28.872Z,5.47
2022-10-31T01:09:59.388Z,5.48
2022-10-31T01:12:30.150Z,5.48
2022-10-31T01:15:02.629Z,5.46
2022-10-31T01:17:33.654Z,5.39
2022-10-31T01:20:04.674Z,5.38
2022-10-31T01:22:36.816Z,5.37
2022-10-31T01:25:08.635Z,5.43
2022-10-31T01:27:38.440Z,5.49
2022-10-31T01:30:13.789Z,5.55
2022-10-31T01:32:43.859Z,5.55
2022-10-31T01:35:14.158Z,5.62
2022-10-31T01:37:44.150Z,5.65
2022-10-31T01:40:14.599Z,5.69
2022-10-31T01:42:44.779Z,5.74
2022-10-31T01:45:18.010Z,5.79
2022-10-31T01:47:50.027Z,5.85
2022-10-31T01:50:31.238Z,5.90
2022-10-31T01:53:03.109Z,5.94
2022-10-31T01:55:38.088Z,6.04
2022-10-31T01:58:12.701Z,6.10
2022-10-31T02:00:49.780Z,5.82
2022-10-31T02:03:21.470Z,6.13
2022-10-31T02:05:53.210Z,6.18
2022-10-31T02:08:30.101Z,6.16
2022-10-31T02:11:03.490Z,6.12
2022-10-31T02:13:33.809Z,6.11
2022-10-31T02:16:05.861Z,6.17
2022-10-31T02:18:37.218Z,6.24
2022-10-31T02:21:18.128Z,6.39
2022-10-31T02:24:24.437Z,6.42
2022-10-31T02:27:10.737Z,6.53
2022-10-31T02:30:09.839Z,6.57
2022-10-31T02:33:08.849Z,6.63
2022-10-31T02:35:51.402Z,6.65
2022-10-31T02:38:31.269Z,6.69
2022-10-31T02:41:10.319Z,6.70
2022-10-31T02:43:55.509Z,6.77
2022-10-31T02:46:33.869Z,6.81
2022-10-31T02:49:10.880Z,6.82
2022-10-31T02:51:43.128Z,6.79
2022-10-31T02:54:26.929Z,6.79
2022-10-31T02:57:01.890Z,6.83
2022-10-31T02:59:35.588Z,6.88
2022-10-31T03:02:20.448Z,6.92
2022-10-31T03:05:21.879Z,6.98
2022-10-31T03:08:02.617Z,7.04
2022-10-31T03:10:43.466Z,7.02
2022-10-31T03:16:08.299Z,7.08
2022-10-31T03:18:43.768Z,7.13
2022-10-31T03:21:20.291Z,7.17
2022-10-31T03:23:52.139Z,7.19
2022-10-31T03:26:26.722Z,7.22
2022-10-31T03:29:02.280Z,7.28
2022-10-31T03:31:36.331Z,7.29
2022-10-31T03:34:08.892Z,7.29
2022-10-31T03:36:43.079Z,7.30
2022-10-31T03:39:17.221Z,7.29
2022-10-31T03:41:51.119Z,7.29
2022-10-31T03:44:24.940Z,7.28
2022-10-31T03:47:03.297Z,7.22
2022-10-31T03:49:35.401Z,7.17
2022-10-31T03:52:15.330Z,7.13
2022-10-31T03:54:47.828Z,7.08
2022-10-31T03:57:25.881Z,7.01
2022-10-31T04:00:02.839Z,6.99
2022-10-31T04:02:38.082Z,6.97
2022-10-31T04:05:10.960Z,6.96
2022-10-31T04:07:47.839Z,6.97
2022-10-31T04:10:19.679Z,6.98
2022-10-31T04:12:56.276Z,7.00
2022-10-31T04:15:31.020Z,7.01
2022-10-31T04:18:04.891Z,6.97
2022-10-31T04:20:37.050Z,7.00
2022-10-31T04:23:14.778Z,6.95
2022-10-31T04:25:46.880Z,7.01
2022-10-31T04:30:53.132Z,6.95
2022-10-31T04:33:23.589Z,7.00
2022-10-31T04:35:54.470Z,7.06
2022-10-31T04:38:26.191Z,7.06
2022-10-31T04:40:56.010Z,7.05
2022-10-31T04:43:45.209Z,7.07
2022-10-31T04:46:17.669Z,7.06
2022-10-31T04:48:48.034Z,7.03
2022-10-31T04:51:19.167Z,7.05
2022-10-31T04:53:51.069Z,7.05
2022-10-31T04:56:44.647Z,7.10
2022-10-31T04:59:21.502Z,7.10
2022-10-31T05:01:57.452Z,7.14
2022-10-31T05:04:40.361Z,7.14
2022-10-31T05:07:11.169Z,7.13
2022-10-31T05:09:42.959Z,7.17
2022-10-31T05:12:13.233Z,7.17
2022-10-31T05:15:03.970Z,7.24
2022-10-31T05:17:53.473Z,7.27
2022-10-31T05:20:47.678Z,7.30
2022-10-31T05:23:30.608Z,7.35
2022-10-31T05:26:02.360Z,7.35
2022-10-31T05:28:32.549Z,7.36
2022-10-31T05:31:03.422Z,7.40
2022-10-31T05:33:34.628Z,7.41
2022-10-31T05:36:43.628Z,7.43
2022-10-31T05:39:20.818Z,7.49
2022-10-31T05:41:55.408Z,7.56
2022-10-31T05:44:29.619Z,7.62
2022-10-31T05:47:26.920Z,7.75
2022-10-31T05:50:15.752Z,7.86
2022-10-31T05:52:57.100Z,7.92
2022-10-31T05:55:38.128Z,7.97
2022-10-31T05:58:23.976Z,8.01
2022-10-31T06:01:03.618Z,8.06
2022-10-31T06:03:34.330Z,8.05
2022-10-31T06:06:07.029Z,8.07
2022-10-31T06:08:41.209Z,8.07
2022-10-31T06:11:17.450Z,8.06
2022-10-31T06:14:15.804Z,8.05
2022-10-31T06:16:54.590Z,8.06
2022-10-31T06:19:47.500Z,8.07
2022-10-31T06:22:23.269Z,8.10
2022-10-31T06:24:54.033Z,8.07
2022-10-31T06:27:37.742Z,8.04
2022-10-31T06:30:17.007Z,8.06
2022-10-31T06:32:48.868Z,8.06
2022-10-31T06:35:19.789Z,8.11
2022-10-31T06:37:55.238Z,8.12
2022-10-31T06:40:39.270Z,8.17
2022-10-31T06:43:29.790Z,8.22
2022-10-31T06:46:21.909Z,8.27
2022-10-31T06:49:15.527Z,8.32
2022-10-31T06:51:53.619Z,8.34
2022-10-31T06:54:23.789Z,8.33
2022-10-31T06:56:54.109Z,8.36
2022-10-31T06:59:25.488Z,8.38
2022-10-31T07:02:11.705Z,8.44
2022-10-31T07:04:43.709Z,8.45
2022-10-31T07:07:17.520Z,8.51
2022-10-31T07:09:48.958Z,8.53
2022-10-31T07:12:21.721Z,8.51
2022-10-31T07:14:59.479Z,8.57
2022-10-31T07:17:31.979Z,8.59
2022-10-31T07:20:04.097Z,8.65
2022-10-31T07:22:38.489Z,8.72
2022-10-31T07:25:12.047Z,8.74
2022-10-31T07:28:18.058Z,8.83
2022-10-31T07:30:53.669Z,8.87
2022-10-31T07:33:28.312Z,8.90
2022-10-31T07:36:18.580Z,8.97
2022-10-31T07:38:52.248Z,9.02
2022-10-31T07:41:23.450Z,9.10
2022-10-31T07:46:47.968Z,9.27
2022-10-31T07:49:43.139Z,9.41
2022-10-31T07:52:33.731Z,9.49
2022-10-31T07:55:04.880Z,9.65
2022-10-31T07:57:35.669Z,9.81
2022-10-31T08:00:06.950Z,9.91
2022-10-31T08:02:45.385Z,10.00
2022-10-31T08:05:54.405Z,10.10
2022-10-31T08:08:46.515Z,10.14
2022-10-31T08:11:17.856Z,10.13
2022-10-31T08:13:49.340Z,10.21
2022-10-31T08:16:20.428Z,10.29
2022-10-31T08:19:09.290Z,10.34
2022-10-31T08:21:44.491Z,10.43
2022-10-31T08:24:15.351Z,10.47
2022-10-31T08:26:48.394Z,10.52
2022-10-31T08:29:22.775Z,10.57
2022-10-31T08:31:53.690Z,10.60
2022-10-31T08:35:03.723Z,10.65
2022-10-31T08:37:57.260Z,10.69
2022-10-31T08:40:31.926Z,10.72
2022-10-31T08:43:04.549Z,10.73
2022-10-31T08:45:36.441Z,10.81
2022-10-31T08:48:12.490Z,10.86
2022-10-31T08:50:43.460Z,10.93
2022-10-31T08:53:17.612Z,10.97
2022-10-31T08:55:53.100Z,11.00
2022-10-31T08:58:28.790Z,11.06
2022-10-31T09:01:05.129Z,11.13
2022-10-31T09:03:36.040Z,11.17
2022-10-31T09:06:10.071Z,11.22
2022-10-31T09:08:42.711Z,11.25
2022-10-31T09:11:12.858Z,11.31
2022-10-31T09:14:01.970Z,11.35
2022-10-31T09:16:50.590Z,11.36
2022-10-31T09:19:25.880Z,11.37
2022-10-31T09:21:56.619Z,11.37
2022-10-31T09:24:28.541Z,11.43
2022-10-31T09:26:58.925Z,11.43
2022-10-31T09:29:32.137Z,11.46
2022-10-31T09:32:04.231Z,11.51
2022-10-31T09:34:38.267Z,11.53
2022-10-31T09:37:17.929Z,11.53
2022-10-31T09:39:51.006Z,11.60
2022-10-31T09:42:54.151Z,11.66
2022-10-31T09:45:35.071Z,11.66
2022-10-31T09:48:44.230Z,11.69
2022-10-31T09:51:28.769Z,11.69
2022-10-31T09:54:21.241Z,11.71
2022-10-31T09:56:53.657Z,11.71
2022-10-31T09:59:32.707Z,11.70
2022-10-31T10:02:07.667Z,11.71
2022-10-31T10:04:45.897Z,11.77
2022-10-31T10:07:39.597Z,11.80
2022-10-31T10:10:20.386Z,11.77
2022-10-31T10:13:19.354Z,11.77
2022-10-31T10:16:26.383Z,11.80
2022-10-31T10:19:09.178Z,11.83
2022-10-31T10:21:49.178Z,11.85
2022-10-31T10:24:36.608Z,11.84
2022-10-31T10:27:22.332Z,11.81
2022-10-31T10:30:03.592Z,11.85
2022-10-31T10:32:40.752Z,11.81
2022-10-31T10:35:22.217Z,11.81
2022-10-31T10:37:55.411Z,11.86
2022-10-31T10:40:29.243Z,11.89
2022-10-31T10:43:24.746Z,11.93
2022-10-31T10:46:32.810Z,11.98
2022-10-31T10:49:19.051Z,11.98
2022-10-31T10:55:07.439Z,12.05
2022-10-31T10:57:55.546Z,12.06
2022-10-31T11:00:27.500Z,12.12
2022-10-31T11:02:59.969Z,12.15
2022-10-31T11:05:38.171Z,12.15
2022-10-31T11:08:10.620Z,12.17
2022-10-31T11:10:41.409Z,12.20
2022-10-31T11:13:25.574Z,12.26
2022-10-31T11:16:03.329Z,12.31
2022-10-31T11:18:37.907Z,12.33
2022-10-31T11:21:08.660Z,12.33
2022-10-31T11:23:39.904Z,12.34
2022-10-31T11:26:22.421Z,12.37
2022-10-31T11:29:05.159Z,12.35
2022-10-31T11:31:39.606Z,12.38
2022-10-31T11:34:22.272Z,12.40
2022-10-31T11:36:52.862Z,12.33
2022-10-31T11:39:26.700Z,12.31
2022-10-31T11:42:07.698Z,12.32
2022-10-31T11:44:47.559Z,12.37
2022-10-31T11:47:20.629Z,12.37
2022-10-31T11:49:53.459Z,12.36
2022-10-31T11:52:31.092Z,12.38
2022-10-31T11:55:04.660Z,12.36
2022-10-31T11:57:45.866Z,12.37
2022-10-31T12:00:26.039Z,12.36
2022-10-31T12:03:15.311Z,12.38
2022-10-31T12:05:48.739Z,12.41
2022-10-31T12:08:20.366Z,12.41
2022-10-31T12:11:05.622Z,12.35
2022-10-31T12:13:40.886Z,12.36
2022-10-31T12:16:18.732Z,12.39
2022-10-31T12:19:01.295Z,12.40
2022-10-31T12:21:54.276Z,12.45
2022-10-31T12:25:07.549Z,12.42
2022-10-31T12:27:58.900Z,12.39
2022-10-31T12:30:37.458Z,12.39
2022-10-31T12:33:29.153Z,12.32
2022-10-31T12:36:15.331Z,12.28
2022-10-31T12:39:23.990Z,12.30
2022-10-31T12:41:58.690Z,12.27
2022-10-31T12:44:50.809Z,11.96
2022-10-31T12:47:56.598Z,12.26
2022-10-31T12:50:37.649Z,12.27
2022-10-31T12:53:21.982Z,12.28
2022-10-31T12:56:03.088Z,12.28
2022-10-31T12:58:38.241Z,12.30
2022-10-31T13:01:15.106Z,12.32
2022-10-31T13:03:51.479Z,12.31
2022-10-31T13:06:26.949Z,12.32
2022-10-31T13:09:00.851Z,12.35
2022-10-31T13:11:38.578Z,12.36
2022-10-31T13:14:15.091Z,12.34
2022-10-31T13:16:49.440Z,12.36
2022-10-31T13:19:24.441Z,12.35
2022-10-31T13:22:03.355Z,12.36
2022-10-31T13:24:39.029Z,12.38
2022-10-31T13:27:21.729Z,12.40
2022-10-31T13:30:03.582Z,12.38
2022-10-31T13:32:44.104Z,12.40
2022-10-31T13:35:22.235Z,12.36
2022-10-31T13:37:59.555Z,12.36
2022-10-31T13:40:40.547Z,12.36
2022-10-31T13:43:22.323Z,12.35
2022-10-31T13:45:53.219Z,12.33
2022-10-31T13:48:44.088Z,12.30
2022-10-31T13:51:14.917Z,12.30
2022-10-31T13:54:00.989Z,12.27
2022-10-31T13:56:35.051Z,12.31
2022-10-31T13:59:26.616Z,12.30
2022-10-31T14:02:02.533Z,12.27
2022-10-31T14:04:40.737Z,12.29
2022-10-31T14:07:13.922Z,12.27
2022-10-31T14:09:59.092Z,12.25
2022-10-31T14:12:34.403Z,12.23
2022-10-31T14:15:16.984Z,12.20
2022-10-31T14:17:52.250Z,12.19
2022-10-31T14:20:43.223Z,12.23
2022-10-31T14:23:44.053Z,12.20
2022-10-31T14:26:35.655Z,12.18
2022-10-31T14:29:27.469Z,12.14
2022-10-31T14:32:12.521Z,12.14
2022-10-31T14:34:45.314Z,12.15
2022-10-31T14:37:28.112Z,12.11
2022-10-31T14:40:21.679Z,12.11
2022-10-31T14:43:07.372Z,12.15
2022-10-31T14:45:47.444Z,12.11
2022-10-31T14:48:36.964Z,12.09
2022-10-31T14:51:16.222Z,12.08
2022-10-31T14:53:51.373Z,12.09
2022-10-31T14:56:27.205Z,12.03
2022-10-31T14:59:00.475Z,12.02
2022-10-31T15:01:32.904Z,12.01
2022-10-31T15:04:23.236Z,12.02
2022-10-31T15:07:02.613Z,11.96
2022-10-31T15:09:34.851Z,11.95
2022-10-31T15:12:24.112Z,11.93
2022-10-31T15:14:55.384Z,11.92
2022-10-31T15:17:26.903Z,11.91
2022-10-31T15:20:01.374Z,11.91
2022-10-31T15:22:34.302Z,11.89
2022-10-31T15:25:06.234Z,11.88
2022-10-31T15:27:36.742Z,11.88
2022-10-31T15:30:19.215Z,11.89
2022-10-31T15:32:57.550Z,11.87
2022-10-31T15:35:31.846Z,11.87
2022-10-31T15:38:03.050Z,11.86
2022-10-31T15:40:34.268Z,11.83
2022-10-31T15:43:08.113Z,11.83
2022-10-31T15:45:38.663Z,11.81
2022-10-31T15:48:19.453Z,11.81
2022-10-31T15:50:54.744Z,11.81
2022-10-31T15:53:29.168Z,11.80
2022-10-31T15:56:03.397Z,11.81
2022-10-31T15:58:35.355Z,11.81
2022-10-31T16:01:08.220Z,11.81
2022-10-31T16:03:38.576Z,11.79
2022-10-31T16:06:23.877Z,11.78
2022-10-31T16:08:54.377Z,11.80
2022-10-31T16:11:30.484Z,11.78
2022-10-31T16:14:03.298Z,11.77
2022-10-31T16:16:36.387Z,11.78
2022-10-31T16:19:16.945Z,11.77
2022-10-31T16:21:51.476Z,11.75
2022-10-31T16:24:25.875Z,11.73
2022-10-31T16:27:05.745Z,11.74
2022-10-31T16:29:45.218Z,11.73
2022-10-31T16:32:30.485Z,11.73
2022-10-31T16:35:19.526Z,11.72
2022-10-31T16:37:51.507Z,11.71
2022-10-31T16:40:21.870Z,11.70
2022-10-31T16:42:52.851Z,11.70
2022-10-31T16:45:24.539Z,11.70
2022-10-31T16:47:55.355Z,11.69
2022-10-31T16:50:28.214Z,11.67
2022-10-31T16:53:13.291Z,11.67
2022-10-31T16:55:48.239Z,11.66
2022-10-31T16:58:25.256Z,11.67
2022-10-31T17:00:56.202Z,11.66
2022-10-31T17:03:35.188Z,11.65
2022-10-31T17:06:05.320Z,11.65
2022-10-31T17:08:38.006Z,11.65
2022-10-31T17:11:11.225Z,11.64
2022-10-31T17:13:42.091Z,11.64
2022-10-31T17:16:14.789Z,11.63
2022-10-31T17:18:48.146Z,11.64
2022-10-31T17:21:25.597Z,11.62
2022-10-31T17:23:57.989Z,11.64
2022-10-31T17:26:28.115Z,11.60
2022-10-31T17:29:00.356Z,11.59
2022-10-31T17:31:32.478Z,11.59
2022-10-31T17:34:04.287Z,11.58
2022-10-31T17:36:34.839Z,11.61
2022-10-31T17:39:10.426Z,11.58
2022-10-31T17:41:40.566Z,11.56
2022-10-31T17:44:13.070Z,11.55
2022-10-31T17:46:43.676Z,11.55
2022-10-31T17:49:14.775Z,11.55
2022-10-31T17:51:45.054Z,11.28
2022-10-31T17:54:23.283Z,11.54
2022-10-31T17:56:59.032Z,11.54
2022-10-31T17:59:31.099Z,11.53
2022-10-31T18:02:01.977Z,11.52
2022-10-31T18:04:33.506Z,11.54
2022-10-31T18:07:03.668Z,11.52
2022-10-31T18:09:35.781Z,11.54
2022-10-31T18:12:06.564Z,11.56
2022-10-31T18:14:37.117Z,11.55
2022-10-31T18:17:07.246Z,11.54
2022-10-31T18:19:38.196Z,11.50
2022-10-31T18:22:08.854Z,11.50
2022-10-31T18:24:41.053Z,11.49
2022-10-31T18:27:11.173Z,11.47
2022-10-31T18:29:41.465Z,11.46
2022-10-31T18:32:11.517Z,11.45
2022-10-31T18:34:42.057Z,11.49
2022-10-31T18:37:12.300Z,11.47
2022-10-31T18:39:45.736Z,11.47
2022-10-31T18:42:16.086Z,11.45
2022-10-31T18:44:47.099Z,11.45
2022-10-31T18:47:17.968Z,11.47
2022-10-31T18:49:48.613Z,11.48
2022-10-31T18:52:19.205Z,11.49
2022-10-31T18:54:51.296Z,11.48
2022-10-31T18:57:21.419Z,11.46
2022-10-31T18:59:52.834Z,11.45
2022-10-31T19:02:26.420Z,11.45
2022-10-31T19:04:56.916Z,11.45
2022-10-31T19:07:27.527Z,11.45
2022-10-31T19:09:59.763Z,11.46
2022-10-31T19:12:29.827Z,11.46
2022-10-31T19:15:00.495Z,11.47
2022-10-31T19:17:31.300Z,11.47
2022-10-31T19:20:02.114Z,11.46
2022-10-31T19:22:34.152Z,11.46
2022-10-31T19:25:10.507Z,11.46
2022-10-31T19:27:41.458Z,11.46
2022-10-31T19:30:13.845Z,11.46
2022-10-31T19:32:43.886Z,11.44
2022-10-31T19:35:14.297Z,11.45
2022-10-31T19:37:44.450Z,11.44
2022-10-31T19:40:17.597Z,11.45
2022-10-31T19:42:47.798Z,11.43
2022-10-31T19:45:18.469Z,11.41
2022-10-31T19:47:51.592Z,11.41
2022-10-31T19:50:22.535Z,11.41
2022-10-31T19:53:02.748Z,11.38
2022-10-31T19:55:36.224Z,11.37
2022-10-31T19:58:06.307Z,11.37
2022-10-31T20:00:38.932Z,11.38
2022-10-31T20:03:10.085Z,11.36
2022-10-31T20:05:42.984Z,11.37
2022-10-31T20:08:17.147Z,11.37
2022-10-31T20:11:00.811Z,11.35
2022-10-31T20:13:32.985Z,11.37
2022-10-31T20:16:05.925Z,11.37
2022-10-31T20:18:37.477Z,11.36
2022-10-31T20:21:09.870Z,11.38
2022-10-31T20:23:41.306Z,11.37
2022-10-31T20:26:15.786Z,11.38
2022-10-31T20:28:46.757Z,11.34
2022-10-31T20:31:19.335Z,11.34
2022-10-31T20:33:50.972Z,11.34
2022-10-31T20:36:23.275Z,11.35
2022-10-31T20:38:54.416Z,11.36
2022-10-31T20:41:26.781Z,11.39
2022-10-31T20:43:59.245Z,11.36
2022-10-31T20:46:30.957Z,11.37
2022-10-31T20:49:09.453Z,11.40
2022-10-31T20:51:41.024Z,11.39
2022-10-31T20:54:17.872Z,11.39
2022-10-31T20:56:50.330Z,11.37
2022-10-31T20:59:20.848Z,11.36
2022-10-31T21:04:36.964Z,11.32
2022-10-31T21:07:07.395Z,11.33
2022-10-31T21:09:40.558Z,11.34
2022-10-31T21:12:15.390Z,11.33
2022-10-31T21:14:48.605Z,11.31
2022-10-31T21:17:19.467Z,11.29
2022-10-31T21:19:50.595Z,11.29
2022-10-31T21:22:26.369Z,11.27
2022-10-31T21:24:58.177Z,11.27
2022-10-31T21:27:32.230Z,11.28
2022-10-31T21:30:03.275Z,11.24
2022-10-31T21:32:37.886Z,11.21
2022-10-31T21:35:09.583Z,11.22
2022-10-31T21:37:39.995Z,11.24
2022-10-31T21:40:11.327Z,11.22
2022-10-31T21:42:46.566Z,11.22
2022-10-31T21:45:16.911Z,11.22
2022-10-31T21:47:48.773Z,11.22
2022-10-31T21:50:20.894Z,11.23
2022-10-31T21:52:52.839Z,11.21
2022-10-31T21:55:21.495Z,11.19
2022-10-31T21:57:54.026Z,11.19
2022-10-31T22:00:25.109Z,11.21
2022-10-31T22:02:57.773Z,11.23
2022-10-31T22:05:28.326Z,11.23
2022-10-31T22:07:59.583Z,11.24
2022-10-31T22:10:30.054Z,11.23
2022-10-31T22:13:02.595Z,11.23
2022-10-31T22:15:33.129Z,11.21
2022-10-31T22:18:07.013Z,11.23
2022-10-31T22:20:37.045Z,11.23
2022-10-31T22:23:09.777Z,11.23
2022-10-31T22:25:39.944Z,11.23
2022-10-31T22:28:13.886Z,11.22
2022-10-31T22:30:44.524Z,11.24
2022-10-31T22:33:14.977Z,11.23
2022-10-31T22:35:45.236Z,11.22
2022-10-31T22:38:15.577Z,11.23
2022-10-31T22:40:45.657Z,11.22
2022-10-31T22:43:17.545Z,11.20
2022-10-31T22:46:00.706Z,11.22
2022-10-31T22:48:31.689Z,11.21
2022-10-31T22:51:07.184Z,11.21
2022-10-31T22:53:39.048Z,11.22
2022-10-31T22:56:09.585Z,11.24
2022-10-31T22:58:41.544Z,11.23
2022-10-31T23:01:13.504Z,11.21
2022-10-31T23:03:44.826Z,11.22
2022-10-31T23:06:17.167Z,11.22
2022-10-31T23:08:48.705Z,11.21
2022-10-31T23:11:21.376Z,11.22
2022-10-31T23:14:09.323Z,11.22
2022-10-31T23:16:42.958Z,11.22
2022-10-31T23:19:15.016Z,11.20
2022-10-31T23:22:02.786Z,11.21
2022-10-31T23:24:37.025Z,11.18
2022-10-31T23:27:09.959Z,11.16
2022-10-31T23:29:47.337Z,11.15
2022-10-31T23:32:22.536Z,11.16
2022-10-31T23:34:54.762Z,11.15
2022-10-31T23:37:26.756Z,11.15
2022-10-31T23:39:57.429Z,11.12
2022-10-31T23:42:28.766Z,11.12
2022-10-31T23:45:00.607Z,11.13
2022-10-31T23:47:32.296Z,11.13
2022-10-31T23:50:02.594Z,11.11
2022-10-31T23:52:32.685Z,11.08
2022-10-31T23:55:03.085Z,11.06
2022-10-31T23:57:33.076Z,11.05
